sensor_id;sensor_type;location;lat;lon;timestamp;pressure;altitude;pressure_sealevel;temperature;humidity
9439;BME280;5176;42.622;25.386;2023-01-20T00:02:21;96407.34;;;12.80;86.13
9439;BME280;5176;42.622;25.386;2023-01-20T00:04:48;96403.44;;;12.75;86.67
9439;BME280;5176;42.622;25.386;2023-01-20T00:07:15;96404.41;;;12.74;87.70
9439;BME280;5176;42.622;25.386;2023-01-20T00:09:42;96416.72;;;12.73;88.46
9439;BME280;5176;42.622;25.386;2023-01-20T00:12:09;96412.44;;;12.72;89.22
9439;BME280;5176;42.622;25.386;2023-01-20T00:14:36;96422.13;;;12.72;90.31
9439;BME280;5176;42.622;25.386;2023-01-20T00:17:03;96412.81;;;12.68;90.85
9439;BME280;5176;42.622;25.386;2023-01-20T00:19:32;96417.53;;;12.64;92.15
9439;BME280;5176;42.622;25.386;2023-01-20T00:21:59;96426.25;;;12.65;92.04
9439;BME280;5176;42.622;25.386;2023-01-20T00:24:27;96431.19;;;12.58;92.93
9439;BME280;5176;42.622;25.386;2023-01-20T00:26:54;96433.41;;;12.63;92.80
9439;BME280;5176;42.622;25.386;2023-01-20T00:29:21;96447.00;;;12.68;92.44
9439;BME280;5176;42.622;25.386;2023-01-20T00:31:48;96436.66;;;12.76;92.19
9439;BME280;5176;42.622;25.386;2023-01-20T00:34:15;96446.81;;;12.80;91.42
9439;BME280;5176;42.622;25.386;2023-01-20T00:36:44;96430.31;;;12.78;89.90
9439;BME280;5176;42.622;25.386;2023-01-20T00:39:11;96428.41;;;12.90;88.75
9439;BME280;5176;42.622;25.386;2023-01-20T00:41:38;96428.56;;;12.89;88.33
9439;BME280;5176;42.622;25.386;2023-01-20T00:44:05;96426.75;;;12.89;87.26
9439;BME280;5176;42.622;25.386;2023-01-20T00:46:32;96429.44;;;12.99;87.04
9439;BME280;5176;42.622;25.386;2023-01-20T00:48:59;96434.97;;;12.96;87.24
9439;BME280;5176;42.622;25.386;2023-01-20T00:51:26;96441.34;;;13.03;86.84
9439;BME280;5176;42.622;25.386;2023-01-20T00:53:55;96428.47;;;13.00;86.58
9439;BME280;5176;42.622;25.386;2023-01-20T00:56:22;96440.97;;;13.07;86.34
9439;BME280;5176;42.622;25.386;2023-01-20T00:58:49;96434.56;;;13.00;86.10
9439;BME280;5176;42.622;25.386;2023-01-20T01:01:17;96428.47;;;13.00;86.44
9439;BME280;5176;42.622;25.386;2023-01-20T01:03:44;96424.44;;;12.96;85.65
9439;BME280;5176;42.622;25.386;2023-01-20T01:06:12;96433.34;;;13.04;85.28
9439;BME280;5176;42.622;25.386;2023-01-20T01:08:40;96426.81;;;12.99;84.87
9439;BME280;5176;42.622;25.386;2023-01-20T01:11:09;96420.19;;;13.04;84.76
9439;BME280;5176;42.622;25.386;2023-01-20T01:13:37;96428.91;;;13.05;84.84
9439;BME280;5176;42.622;25.386;2023-01-20T01:16:09;96419.09;;;13.07;84.45
9439;BME280;5176;42.622;25.386;2023-01-20T01:18:36;96423.78;;;13.03;83.96
9439;BME280;5176;42.622;25.386;2023-01-20T01:21:07;96422.69;;;13.06;84.29
9439;BME280;5176;42.622;25.386;2023-01-20T01:23:35;96387.19;;;12.91;83.70
9439;BME280;5176;42.622;25.386;2023-01-20T01:26:02;96422.00;;;13.04;83.93
9439;BME280;5176;42.622;25.386;2023-01-20T01:28:31;96421.13;;;13.03;84.32
9439;BME280;5176;42.622;25.386;2023-01-20T01:30:59;96410.06;;;13.00;84.36
9439;BME280;5176;42.622;25.386;2023-01-20T01:33:27;96421.59;;;13.08;84.46
9439;BME280;5176;42.622;25.386;2023-01-20T01:35:55;96415.34;;;13.09;83.59
9439;BME280;5176;42.622;25.386;2023-01-20T01:38:22;96420.06;;;13.06;82.94
9439;BME280;5176;42.622;25.386;2023-01-20T01:40:50;96425.47;;;13.14;82.51
9439;BME280;5176;42.622;25.386;2023-01-20T01:43:21;96426.44;;;13.13;82.59
9439;BME280;5176;42.622;25.386;2023-01-20T01:45:50;96417.72;;;13.13;82.82
9439;BME280;5176;42.622;25.386;2023-01-20T01:48:19;96404.56;;;13.13;82.65
9439;BME280;5176;42.622;25.386;2023-01-20T01:50:51;96399.16;;;13.14;82.84
9439;BME280;5176;42.622;25.386;2023-01-20T01:53:20;96398.03;;;13.07;82.81
9439;BME280;5176;42.622;25.386;2023-01-20T01:55:49;96386.53;;;13.08;83.10
9439;BME280;5176;42.622;25.386;2023-01-20T01:58:19;96380.31;;;13.09;82.77
9439;BME280;5176;42.622;25.386;2023-01-20T02:00:50;96388.50;;;13.06;82.75
9439;BME280;5176;42.622;25.386;2023-01-20T02:03:18;96374.91;;;13.01;83.38
9439;BME280;5176;42.622;25.386;2023-01-20T02:05:48;96362.72;;;13.00;83.38
9439;BME280;5176;42.622;25.386;2023-01-20T02:08:17;96366.03;;;13.02;82.98
9439;BME280;5176;42.622;25.386;2023-01-20T02:10:44;96357.00;;;12.95;83.20
9439;BME280;5176;42.622;25.386;2023-01-20T02:13:11;96357.59;;;12.98;82.66
9439;BME280;5176;42.622;25.386;2023-01-20T02:15:41;96361.19;;;12.97;82.73
9439;BME280;5176;42.622;25.386;2023-01-20T02:18:22;96376.00;;;12.98;82.86
9439;BME280;5176;42.622;25.386;2023-01-20T02:24:28;96373.53;;;13.06;82.16
9439;BME280;5176;42.622;25.386;2023-01-20T02:27:05;96372.56;;;13.07;82.19
9439;BME280;5176;42.622;25.386;2023-01-20T02:30:07;96354.97;;;13.08;82.14
9439;BME280;5176;42.622;25.386;2023-01-20T02:32:54;96371.56;;;12.99;82.86
9439;BME280;5176;42.622;25.386;2023-01-20T02:35:28;96369.91;;;12.98;82.99
9439;BME280;5176;42.622;25.386;2023-01-20T02:38:09;96360.34;;;12.97;83.33
9439;BME280;5176;42.622;25.386;2023-01-20T02:40:47;96362.28;;;12.95;82.73
9439;BME280;5176;42.622;25.386;2023-01-20T02:43:21;96339.28;;;12.97;82.39
9439;BME280;5176;42.622;25.386;2023-01-20T02:45:56;96330.47;;;12.98;82.30
9439;BME280;5176;42.622;25.386;2023-01-20T02:48:33;96334.31;;;12.94;81.83
9439;BME280;5176;42.622;25.386;2023-01-20T02:51:05;96317.41;;;12.96;82.32
9439;BME280;5176;42.622;25.386;2023-01-20T02:53:39;96307.19;;;13.03;81.46
9439;BME280;5176;42.622;25.386;2023-01-20T02:56:10;96309.13;;;13.01;81.41
9439;BME280;5176;42.622;25.386;2023-01-20T02:58:41;96333.38;;;13.04;80.41
9439;BME280;5176;42.622;25.386;2023-01-20T03:01:13;96318.53;;;13.03;80.75
9439;BME280;5176;42.622;25.386;2023-01-20T03:03:45;96335.03;;;13.05;77.97
9439;BME280;5176;42.622;25.386;2023-01-20T03:06:18;96335.34;;;13.12;78.79
9439;BME280;5176;42.622;25.386;2023-01-20T03:08:47;96334.50;;;13.12;79.87
9439;BME280;5176;42.622;25.386;2023-01-20T03:11:16;96334.91;;;13.07;80.50
9439;BME280;5176;42.622;25.386;2023-01-20T03:13:50;96325.50;;;13.04;80.88
9439;BME280;5176;42.622;25.386;2023-01-20T03:16:22;96328.50;;;13.00;81.19
9439;BME280;5176;42.622;25.386;2023-01-20T03:18:53;96317.13;;;12.90;80.93
9439;BME280;5176;42.622;25.386;2023-01-20T03:21:21;96318.81;;;12.91;81.41
9439;BME280;5176;42.622;25.386;2023-01-20T03:23:50;96320.72;;;12.89;80.49
9439;BME280;5176;42.622;25.386;2023-01-20T03:26:20;96328.19;;;12.83;80.22
9439;BME280;5176;42.622;25.386;2023-01-20T03:28:48;96311.31;;;12.86;79.69
9439;BME280;5176;42.622;25.386;2023-01-20T03:31:17;96302.75;;;12.84;79.59
9439;BME280;5176;42.622;25.386;2023-01-20T03:33:48;96302.84;;;12.82;79.33
9439;BME280;5176;42.622;25.386;2023-01-20T03:36:18;96298.16;;;12.86;78.20
9439;BME280;5176;42.622;25.386;2023-01-20T03:38:47;96297.06;;;12.89;77.82
9439;BME280;5176;42.622;25.386;2023-01-20T03:41:25;96305.78;;;12.89;78.06
9439;BME280;5176;42.622;25.386;2023-01-20T03:43:58;96315.59;;;12.87;78.01
9439;BME280;5176;42.622;25.386;2023-01-20T03:46:39;96303.69;;;12.83;78.50
9439;BME280;5176;42.622;25.386;2023-01-20T03:49:12;96309.38;;;12.88;78.28
9439;BME280;5176;42.622;25.386;2023-01-20T03:51:53;96305.09;;;12.87;79.05
9439;BME280;5176;42.622;25.386;2023-01-20T03:54:25;96301.75;;;12.85;79.69
9439;BME280;5176;42.622;25.386;2023-01-20T03:56:56;96302.59;;;12.86;80.52
9439;BME280;5176;42.622;25.386;2023-01-20T03:59:31;96302.59;;;12.86;80.81
9439;BME280;5176;42.622;25.386;2023-01-20T04:02:02;96299.13;;;12.85;80.47
9439;BME280;5176;42.622;25.386;2023-01-20T04:04:32;96300.66;;;12.88;80.96
9439;BME280;5176;42.622;25.386;2023-01-20T04:07:03;96293.72;;;12.87;80.47
9439;BME280;5176;42.622;25.386;2023-01-20T04:09:34;96306.75;;;12.88;79.85
9439;BME280;5176;42.622;25.386;2023-01-20T04:12:04;96310.50;;;12.86;79.24
9439;BME280;5176;42.622;25.386;2023-01-20T04:14:33;96306.59;;;12.90;79.15
9439;BME280;5176;42.622;25.386;2023-01-20T04:17:02;96308.53;;;12.88;79.23
9439;BME280;5176;42.622;25.386;2023-01-20T04:19:30;96306.06;;;12.86;79.62
9439;BME280;5176;42.622;25.386;2023-01-20T04:22:02;96315.44;;;12.79;80.79
9439;BME280;5176;42.622;25.386;2023-01-20T04:24:37;96313.66;;;12.79;82.70
9439;BME280;5176;42.622;25.386;2023-01-20T04:27:07;96314.63;;;12.78;84.29
9439;BME280;5176;42.622;25.386;2023-01-20T04:29:34;96324.31;;;12.78;84.19
9439;BME280;5176;42.622;25.386;2023-01-20T04:32:02;96331.38;;;12.77;84.54
9439;BME280;5176;42.622;25.386;2023-01-20T04:34:30;96310.56;;;12.65;84.72
9439;BME280;5176;42.622;25.386;2023-01-20T04:36:57;96305.16;;;12.66;84.27
9439;BME280;5176;42.622;25.386;2023-01-20T04:39:24;96312.69;;;12.80;84.13
9439;BME280;5176;42.622;25.386;2023-01-20T04:41:53;96302.00;;;12.82;83.14
9439;BME280;5176;42.622;25.386;2023-01-20T04:44:20;96299.25;;;12.83;82.90
9439;BME280;5176;42.622;25.386;2023-01-20T04:46:47;96304.25;;;12.87;82.08
9439;BME280;5176;42.622;25.386;2023-01-20T04:49:14;96306.31;;;12.83;82.62
9439;BME280;5176;42.622;25.386;2023-01-20T04:51:41;96305.38;;;12.84;82.31
9439;BME280;5176;42.622;25.386;2023-01-20T04:54:09;96311.03;;;12.89;82.59
9439;BME280;5176;42.622;25.386;2023-01-20T04:56:37;96292.22;;;12.84;82.57
9439;BME280;5176;42.622;25.386;2023-01-20T04:59:05;96300.66;;;12.88;82.49
9439;BME280;5176;42.622;25.386;2023-01-20T05:01:32;96300.50;;;12.89;82.05
9439;BME280;5176;42.622;25.386;2023-01-20T05:04:00;96293.97;;;12.83;82.15
9439;BME280;5176;42.622;25.386;2023-01-20T05:06:27;96288.34;;;12.88;81.72
9439;BME280;5176;42.622;25.386;2023-01-20T05:08:54;96295.25;;;12.89;79.93
9439;BME280;5176;42.622;25.386;2023-01-20T05:11:21;96302.31;;;12.89;78.88
9439;BME280;5176;42.622;25.386;2023-01-20T05:13:48;96308.59;;;12.97;78.77
9439;BME280;5176;42.622;25.386;2023-01-20T05:16:17;96310.94;;;13.00;77.26
9439;BME280;5176;42.622;25.386;2023-01-20T05:18:48;96309.69;;;13.04;76.77
9439;BME280;5176;42.622;25.386;2023-01-20T05:21:16;96306.50;;;13.01;76.35
9439;BME280;5176;42.622;25.386;2023-01-20T05:23:43;96307.06;;;13.04;78.04
9439;BME280;5176;42.622;25.386;2023-01-20T05:26:10;96301.91;;;13.03;78.78
9439;BME280;5176;42.622;25.386;2023-01-20T05:28:37;96306.50;;;13.01;79.28
9439;BME280;5176;42.622;25.386;2023-01-20T05:31:04;96287.38;;;12.89;79.70
9439;BME280;5176;42.622;25.386;2023-01-20T05:33:33;96312.34;;;13.04;80.12
9439;BME280;5176;42.622;25.386;2023-01-20T05:36:03;96308.59;;;13.07;80.69
9439;BME280;5176;42.622;25.386;2023-01-20T05:38:31;96270.75;;;12.89;80.86
9439;BME280;5176;42.622;25.386;2023-01-20T05:40:59;96305.38;;;13.03;81.21
9439;BME280;5176;42.622;25.386;2023-01-20T05:43:26;96297.78;;;13.00;82.07
9439;BME280;5176;42.622;25.386;2023-01-20T05:45:53;96286.69;;;12.97;82.53
9439;BME280;5176;42.622;25.386;2023-01-20T05:48:21;96288.06;;;12.91;83.20
9439;BME280;5176;42.622;25.386;2023-01-20T05:50:49;96286.97;;;12.94;83.35
9439;BME280;5176;42.622;25.386;2023-01-20T05:53:17;96285.84;;;12.87;83.97
9439;BME280;5176;42.622;25.386;2023-01-20T05:55:44;96292.75;;;12.88;84.21
9439;BME280;5176;42.622;25.386;2023-01-20T05:58:12;96309.91;;;12.72;85.72
9439;BME280;5176;42.622;25.386;2023-01-20T06:00:39;96317.06;;;12.70;85.52
9439;BME280;5176;42.622;25.386;2023-01-20T06:03:06;96310.41;;;12.66;86.20
9439;BME280;5176;42.622;25.386;2023-01-20T06:05:34;96308.34;;;12.70;87.03
9439;BME280;5176;42.622;25.386;2023-01-20T06:08:02;96302.25;;;12.69;86.83
9439;BME280;5176;42.622;25.386;2023-01-20T06:10:29;96298.63;;;12.61;88.15
9439;BME280;5176;42.622;25.386;2023-01-20T06:12:56;96321.19;;;12.63;90.19
9439;BME280;5176;42.622;25.386;2023-01-20T06:15:24;96308.91;;;12.73;90.13
9439;BME280;5176;42.622;25.386;2023-01-20T06:17:53;96316.13;;;12.71;90.51
9439;BME280;5176;42.622;25.386;2023-01-20T06:20:21;96310.88;;;12.71;90.99
9439;BME280;5176;42.622;25.386;2023-01-20T06:22:48;96321.50;;;12.70;91.46
9439;BME280;5176;42.622;25.386;2023-01-20T06:25:17;96330.94;;;12.72;91.23
9439;BME280;5176;42.622;25.386;2023-01-20T06:27:44;96329.81;;;12.75;91.47
9439;BME280;5176;42.622;25.386;2023-01-20T06:30:11;96329.13;;;12.73;90.19
9439;BME280;5176;42.622;25.386;2023-01-20T06:32:39;96304.88;;;12.69;89.70
9439;BME280;5176;42.622;25.386;2023-01-20T06:35:06;96314.31;;;12.72;89.59
9439;BME280;5176;42.622;25.386;2023-01-20T06:37:34;96303.53;;;12.75;89.41
9439;BME280;5176;42.622;25.386;2023-01-20T06:40:01;96278.59;;;12.69;89.35
9439;BME280;5176;42.622;25.386;2023-01-20T06:42:31;96286.78;;;12.76;89.50
9439;BME280;5176;42.622;25.386;2023-01-20T06:44:58;96284.13;;;12.66;90.45
9439;BME280;5176;42.622;25.386;2023-01-20T06:47:25;96300.16;;;12.63;90.77
9439;BME280;5176;42.622;25.386;2023-01-20T06:49:53;96285.78;;;12.67;90.78
9439;BME280;5176;42.622;25.386;2023-01-20T06:52:20;96283.59;;;12.72;90.70
9439;BME280;5176;42.622;25.386;2023-01-20T06:54:47;96289.16;;;12.79;90.34
9439;BME280;5176;42.622;25.386;2023-01-20T06:57:14;96296.22;;;12.78;90.24
9439;BME280;5176;42.622;25.386;2023-01-20T06:59:43;96296.47;;;12.75;90.70
9439;BME280;5176;42.622;25.386;2023-01-20T07:02:11;96304.94;;;12.79;90.65
9439;BME280;5176;42.622;25.386;2023-01-20T07:04:38;96305.06;;;12.77;90.50
9439;BME280;5176;42.622;25.386;2023-01-20T07:07:10;96305.91;;;12.78;90.52
9439;BME280;5176;42.622;25.386;2023-01-20T07:09:37;96296.59;;;12.74;90.84
9439;BME280;5176;42.622;25.386;2023-01-20T07:12:05;96290.06;;;12.68;91.49
9439;BME280;5176;42.622;25.386;2023-01-20T07:14:32;96282.59;;;12.64;91.49
9439;BME280;5176;42.622;25.386;2023-01-20T07:17:00;96269.88;;;12.69;91.79
9439;BME280;5176;42.622;25.386;2023-01-20T07:19:28;96287.31;;;12.70;91.78
9439;BME280;5176;42.622;25.386;2023-01-20T07:21:55;96295.47;;;12.67;92.83
9439;BME280;5176;42.622;25.386;2023-01-20T07:24:22;96290.88;;;12.59;93.01
9439;BME280;5176;42.622;25.386;2023-01-20T07:26:51;96275.56;;;12.64;92.89
9439;BME280;5176;42.622;25.386;2023-01-20T07:29:18;96263.63;;;12.60;93.43
9439;BME280;5176;42.622;25.386;2023-01-20T07:31:45;96253.81;;;12.62;93.85
9439;BME280;5176;42.622;25.386;2023-01-20T07:34:14;96257.16;;;12.64;93.60
9439;BME280;5176;42.622;25.386;2023-01-20T07:36:41;96252.00;;;12.63;94.67
9439;BME280;5176;42.622;25.386;2023-01-20T07:39:09;96252.97;;;12.62;94.98
9439;BME280;5176;42.622;25.386;2023-01-20T07:41:36;96240.38;;;12.55;94.30
9439;BME280;5176;42.622;25.386;2023-01-20T07:44:03;96248.25;;;12.55;95.49
9439;BME280;5176;42.622;25.386;2023-01-20T07:46:30;96243.44;;;12.61;94.92
9439;BME280;5176;42.622;25.386;2023-01-20T07:48:58;96241.63;;;12.61;94.69
9439;BME280;5176;42.622;25.386;2023-01-20T07:51:26;96253.66;;;12.64;95.02
9439;BME280;5176;42.622;25.386;2023-01-20T07:53:54;96248.00;;;12.59;95.89
9439;BME280;5176;42.622;25.386;2023-01-20T07:56:22;96246.88;;;12.51;97.46
9439;BME280;5176;42.622;25.386;2023-01-20T07:58:50;96262.13;;;12.58;97.71
9439;BME280;5176;42.622;25.386;2023-01-20T08:01:19;96258.06;;;12.53;98.46
9439;BME280;5176;42.622;25.386;2023-01-20T08:03:47;96262.50;;;12.53;97.78
9439;BME280;5176;42.622;25.386;2023-01-20T08:06:16;96271.22;;;12.63;97.63
9439;BME280;5176;42.622;25.386;2023-01-20T08:08:45;96269.56;;;12.62;96.61
9439;BME280;5176;42.622;25.386;2023-01-20T08:11:13;96282.59;;;12.64;96.68
9439;BME280;5176;42.622;25.386;2023-01-20T08:13:41;96262.66;;;12.61;96.06
9439;BME280;5176;42.622;25.386;2023-01-20T08:16:10;96260.75;;;12.73;95.14
9439;BME280;5176;42.622;25.386;2023-01-20T08:18:37;96250.94;;;12.65;93.94
9439;BME280;5176;42.622;25.386;2023-01-20T08:21:06;96266.03;;;12.73;94.23
9439;BME280;5176;42.622;25.386;2023-01-20T08:23:34;96257.69;;;12.68;94.44
9439;BME280;5176;42.622;25.386;2023-01-20T08:26:05;96263.25;;;12.74;94.94
9439;BME280;5176;42.622;25.386;2023-01-20T08:28:34;96243.44;;;12.70;95.46
9439;BME280;5176;42.622;25.386;2023-01-20T08:31:06;96239.34;;;12.77;95.63
9439;BME280;5176;42.622;25.386;2023-01-20T08:33:33;96227.94;;;12.77;95.73
9439;BME280;5176;42.622;25.386;2023-01-20T08:36:05;96226.44;;;12.74;96.11
9439;BME280;5176;42.622;25.386;2023-01-20T08:38:34;96227.25;;;12.75;96.27
9439;BME280;5176;42.622;25.386;2023-01-20T08:41:05;96211.22;;;12.78;95.56
9439;BME280;5176;42.622;25.386;2023-01-20T08:43:33;96199.16;;;12.75;94.31
9439;BME280;5176;42.622;25.386;2023-01-20T08:46:01;96189.75;;;12.82;94.21
9439;BME280;5176;42.622;25.386;2023-01-20T08:48:28;96186.59;;;12.79;94.83
9439;BME280;5176;42.622;25.386;2023-01-20T08:50:56;96174.97;;;12.72;95.00
9439;BME280;5176;42.622;25.386;2023-01-20T08:53:23;96183.66;;;12.63;96.04
9439;BME280;5176;42.622;25.386;2023-01-20T08:55:54;96165.41;;;12.61;97.40
9439;BME280;5176;42.622;25.386;2023-01-20T08:58:24;96163.59;;;12.62;100.00
9439;BME280;5176;42.622;25.386;2023-01-20T09:00:52;96169.94;;;12.49;100.00
9439;BME280;5176;42.622;25.386;2023-01-20T09:03:20;96156.25;;;12.46;100.00
9439;BME280;5176;42.622;25.386;2023-01-20T09:05:48;96155.66;;;12.42;100.00
9439;BME280;5176;42.622;25.386;2023-01-20T09:08:16;96161.50;;;12.46;100.00
9439;BME280;5176;42.622;25.386;2023-01-20T09:10:44;96150.00;;;12.37;100.00
9439;BME280;5176;42.622;25.386;2023-01-20T09:13:11;96141.84;;;12.40;100.00
9439;BME280;5176;42.622;25.386;2023-01-20T09:15:40;96156.78;;;12.40;100.00
9439;BME280;5176;42.622;25.386;2023-01-20T09:18:07;96163.41;;;12.24;100.00
9439;BME280;5176;42.622;25.386;2023-01-20T09:20:34;96163.41;;;12.24;100.00
9439;BME280;5176;42.622;25.386;2023-01-20T09:23:01;96170.97;;;12.18;100.00
9439;BME280;5176;42.622;25.386;2023-01-20T09:25:29;96178.28;;;12.14;100.00
9439;BME280;5176;42.622;25.386;2023-01-20T09:27:59;96176.72;;;12.02;100.00
9439;BME280;5176;42.622;25.386;2023-01-20T09:30:27;96173.22;;;11.92;100.00
9439;BME280;5176;42.622;25.386;2023-01-20T09:32:56;96169.88;;;11.90;100.00
9439;BME280;5176;42.622;25.386;2023-01-20T09:35:24;96169.34;;;11.86;100.00
9439;BME280;5176;42.622;25.386;2023-01-20T09:37:51;96174.72;;;11.85;100.00
9439;BME280;5176;42.622;25.386;2023-01-20T09:40:40;96191.56;;;11.82;100.00
9439;BME280;5176;42.622;25.386;2023-01-20T09:43:34;96190.25;;;11.77;100.00
9439;BME280;5176;42.622;25.386;2023-01-20T09:46:28;96220.50;;;11.71;100.00
9439;BME280;5176;42.622;25.386;2023-01-20T09:49:07;96233.72;;;11.69;100.00
9439;BME280;5176;42.622;25.386;2023-01-20T09:52:03;96227.47;;;11.61;100.00
9439;BME280;5176;42.622;25.386;2023-01-20T09:54:57;96207.34;;;11.50;100.00
9439;BME280;5176;42.622;25.386;2023-01-20T09:57:26;96240.31;;;11.43;100.00
9439;BME280;5176;42.622;25.386;2023-01-20T10:00:03;96236.16;;;11.40;100.00
9439;BME280;5176;42.622;25.386;2023-01-20T10:02:35;96227.97;;;11.34;100.00
9439;BME280;5176;42.622;25.386;2023-01-20T10:05:10;96226.44;;;11.31;100.00
9439;BME280;5176;42.622;25.386;2023-01-20T10:07:43;96225.13;;;11.37;100.00
9439;BME280;5176;42.622;25.386;2023-01-20T10:10:15;96205.25;;;11.23;100.00
9439;BME280;5176;42.622;25.386;2023-01-20T10:12:50;96198.91;;;11.05;100.00
9439;BME280;5176;42.622;25.386;2023-01-20T10:15:24;96182.97;;;10.64;100.00
9439;BME280;5176;42.622;25.386;2023-01-20T10:17:54;96176.16;;;10.30;100.00
9439;BME280;5176;42.622;25.386;2023-01-20T10:20:29;96163.44;;;9.92;100.00
9439;BME280;5176;42.622;25.386;2023-01-20T10:23:02;96144.38;;;9.56;100.00
9439;BME280;5176;42.622;25.386;2023-01-20T10:25:37;96135.94;;;9.52;100.00
9439;BME280;5176;42.622;25.386;2023-01-20T10:28:09;96117.16;;;9.36;100.00
9439;BME280;5176;42.622;25.386;2023-01-20T10:30:37;96107.91;;;9.43;100.00
9439;BME280;5176;42.622;25.386;2023-01-20T10:33:08;96085.50;;;9.28;100.00
9439;BME280;5176;42.622;25.386;2023-01-20T10:35:39;96089.31;;;9.35;100.00
9439;BME280;5176;42.622;25.386;2023-01-20T10:38:16;96070.78;;;9.38;100.00
9439;BME280;5176;42.622;25.386;2023-01-20T10:40:49;96055.56;;;9.54;100.00
9439;BME280;5176;42.622;25.386;2023-01-20T10:43:19;96033.81;;;9.43;100.00
9439;BME280;5176;42.622;25.386;2023-01-20T10:46:09;96028.13;;;9.38;100.00
9439;BME280;5176;42.622;25.386;2023-01-20T10:49:12;96025.13;;;9.42;100.00
9439;BME280;5176;42.622;25.386;2023-01-20T10:51:51;96013.13;;;9.51;100.00
9439;BME280;5176;42.622;25.386;2023-01-20T10:54:30;96020.34;;;9.70;100.00
9439;BME280;5176;42.622;25.386;2023-01-20T10:57:01;96041.22;;;9.92;100.00
9439;BME280;5176;42.622;25.386;2023-01-20T10:59:32;96039.28;;;10.05;100.00
9439;BME280;5176;42.622;25.386;2023-01-20T11:02:03;96052.34;;;10.28;100.00
9439;BME280;5176;42.622;25.386;2023-01-20T11:04:39;96046.69;;;10.44;100.00
9439;BME280;5176;42.622;25.386;2023-01-20T11:07:14;96054.66;;;10.63;100.00
9439;BME280;5176;42.622;25.386;2023-01-20T11:09:42;96059.34;;;10.80;100.00
9439;BME280;5176;42.622;25.386;2023-01-20T11:12:13;96064.47;;;10.82;100.00
9439;BME280;5176;42.622;25.386;2023-01-20T11:14:41;96079.63;;;10.99;100.00
9439;BME280;5176;42.622;25.386;2023-01-20T11:17:14;96087.13;;;11.04;100.00
9439;BME280;5176;42.622;25.386;2023-01-20T11:19:47;96086.84;;;11.07;100.00
9439;BME280;5176;42.622;25.386;2023-01-20T11:22:23;96077.13;;;11.18;100.00
9439;BME280;5176;42.622;25.386;2023-01-20T11:24:53;96085.69;;;11.21;100.00
9439;BME280;5176;42.622;25.386;2023-01-20T11:27:25;96091.81;;;11.10;100.00
9439;BME280;5176;42.622;25.386;2023-01-20T11:29:56;96084.91;;;11.09;100.00
9439;BME280;5176;42.622;25.386;2023-01-20T11:32:30;96078.06;;;10.76;100.00
9439;BME280;5176;42.622;25.386;2023-01-20T11:34:59;96082.88;;;10.71;100.00
9439;BME280;5176;42.622;25.386;2023-01-20T11:37:35;96089.03;;;10.49;100.00
9439;BME280;5176;42.622;25.386;2023-01-20T11:40:16;96082.28;;;10.46;100.00
9439;BME280;5176;42.622;25.386;2023-01-20T11:42:46;96074.56;;;10.33;100.00
9439;BME280;5176;42.622;25.386;2023-01-20T11:45:29;96056.38;;;10.32;100.00
9439;BME280;5176;42.622;25.386;2023-01-20T11:48:05;96059.56;;;10.35;100.00
9439;BME280;5176;42.622;25.386;2023-01-20T11:50:45;96023.47;;;10.39;100.00
9439;BME280;5176;42.622;25.386;2023-01-20T11:53:21;95985.19;;;10.27;100.00
9439;BME280;5176;42.622;25.386;2023-01-20T11:55:51;95986.44;;;10.44;100.00
9439;BME280;5176;42.622;25.386;2023-01-20T11:58:20;95987.00;;;10.47;100.00
9439;BME280;5176;42.622;25.386;2023-01-20T12:00:51;95986.63;;;10.52;100.00
9439;BME280;5176;42.622;25.386;2023-01-20T12:03:44;96019.03;;;10.51;100.00
9439;BME280;5176;42.622;25.386;2023-01-20T12:06:18;96019.44;;;10.56;100.00
9439;BME280;5176;42.622;25.386;2023-01-20T12:08:52;96036.41;;;10.52;100.00
9439;BME280;5176;42.622;25.386;2023-01-20T12:11:25;96046.06;;;10.51;100.00
9439;BME280;5176;42.622;25.386;2023-01-20T12:14:05;96037.78;;;10.56;100.00
9439;BME280;5176;42.622;25.386;2023-01-20T12:17:18;96029.94;;;10.56;100.00
9439;BME280;5176;42.622;25.386;2023-01-20T12:19:58;96016.66;;;10.48;100.00
9439;BME280;5176;42.622;25.386;2023-01-20T12:22:36;95991.34;;;10.37;100.00
9439;BME280;5176;42.622;25.386;2023-01-20T12:25:20;96000.69;;;10.30;100.00
9439;BME280;5176;42.622;25.386;2023-01-20T12:27:51;96006.00;;;10.28;100.00
9439;BME280;5176;42.622;25.386;2023-01-20T12:30:51;96020.22;;;10.26;100.00
9439;BME280;5176;42.622;25.386;2023-01-20T12:33:23;96012.81;;;10.31;100.00
9439;BME280;5176;42.622;25.386;2023-01-20T12:36:16;96028.75;;;10.28;100.00
9439;BME280;5176;42.622;25.386;2023-01-20T12:39:16;96028.53;;;10.31;100.00
9439;BME280;5176;42.622;25.386;2023-01-20T12:42:03;96015.75;;;10.38;100.00
9439;BME280;5176;42.622;25.386;2023-01-20T12:44:38;96023.53;;;10.28;100.00
9439;BME280;5176;42.622;25.386;2023-01-20T12:47:17;96036.06;;;10.13;100.00
9439;BME280;5176;42.622;25.386;2023-01-20T12:49:56;96018.91;;;10.09;100.00
9439;BME280;5176;42.622;25.386;2023-01-20T12:52:51;96029.28;;;10.10;100.00
9439;BME280;5176;42.622;25.386;2023-01-20T12:55:47;96021.53;;;10.09;100.00
9439;BME280;5176;42.622;25.386;2023-01-20T12:58:30;96014.41;;;10.11;100.00
9439;BME280;5176;42.622;25.386;2023-01-20T13:01:20;96017.03;;;10.11;100.00
9439;BME280;5176;42.622;25.386;2023-01-20T13:04:15;96022.50;;;10.08;100.00
9439;BME280;5176;42.622;25.386;2023-01-20T13:07:03;96032.50;;;10.03;100.00
9439;BME280;5176;42.622;25.386;2023-01-20T13:09:43;96035.00;;;10.04;100.00
9439;BME280;5176;42.622;25.386;2023-01-20T13:12:32;96018.75;;;9.90;100.00
9439;BME280;5176;42.622;25.386;2023-01-20T13:15:16;96009.22;;;9.89;100.00
9439;BME280;5176;42.622;25.386;2023-01-20T13:17:53;96000.88;;;9.95;100.00
9439;BME280;5176;42.622;25.386;2023-01-20T13:20:27;96002.31;;;9.99;100.00
9439;BME280;5176;42.622;25.386;2023-01-20T13:23:04;96002.88;;;10.02;100.00
9439;BME280;5176;42.622;25.386;2023-01-20T13:25:32;95999.66;;;10.10;100.00
9439;BME280;5176;42.622;25.386;2023-01-20T13:28:01;95985.28;;;10.04;100.00
9439;BME280;5176;42.622;25.386;2023-01-20T13:30:42;95986.97;;;9.94;100.00
9439;BME280;5176;42.622;25.386;2023-01-20T13:33:24;95981.25;;;9.89;100.00
9439;BME280;5176;42.622;25.386;2023-01-20T13:35:52;95984.00;;;9.88;100.00